Time;durP1;ratioP1;P1;durP2;ratioP2;P2;SDS_P1;SDS_P2;PMS_P1;PMS_P2;Temp;Humidity;BMP_temperature;BMP_pressure;BME280_temperature;BME280_humidity;BME280_pressure;Samples;Min_cycle;Max_cycle;Signal;HPM_P1;HPM_P2
2022/09/30 00:00:59;;;;;;;5.35;4.03;;;4.20;99.90;;;;;;5049600;28;20033;-47
2022/09/30 00:03:24;;;;;;;5.28;3.55;;;4.20;99.90;;;;;;5047970;28;20037;-48
2022/09/30 00:06:01;;;;;;;7.13;4.57;;;4.20;99.90;;;;;;5052687;28;20033;-46
2022/09/30 00:08:26;;;;;;;8.95;4.97;;;4.10;99.90;;;;;;5055876;28;20078;-51
2022/09/30 00:11:19;;;;;;;7.40;4.90;;;4.10;99.90;;;;;;5059566;28;20021;-51
2022/09/30 00:13:46;;;;;;;7.25;4.40;;;4.10;99.90;;;;;;5050742;28;20047;-51
2022/09/30 00:16:13;;;;;;;4.57;3.20;;;4.10;99.90;;;;;;5058571;28;20139;-52
2022/09/30 00:18:40;;;;;;;6.30;3.78;;;4.00;99.90;;;;;;5058013;28;20096;-51
2022/09/30 00:21:07;;;;;;;7.18;4.45;;;4.00;99.90;;;;;;5040724;28;20025;-50
2022/09/30 00:23:33;;;;;;;10.73;5.18;;;4.00;99.90;;;;;;5035046;28;20041;-49
2022/09/30 00:26:01;;;;;;;7.28;4.45;;;3.90;99.90;;;;;;5060286;28;20615;-50
2022/09/30 00:28:27;;;;;;;7.68;4.47;;;3.90;99.90;;;;;;5068039;28;20180;-48
2022/09/30 00:30:53;;;;;;;6.35;4.13;;;3.90;99.90;;;;;;5067095;28;20029;-49
2022/09/30 00:33:19;;;;;;;9.88;4.70;;;3.80;99.90;;;;;;5049426;28;20025;-52
2022/09/30 00:35:45;;;;;;;8.40;4.40;;;3.80;99.90;;;;;;5048513;28;20420;-51
2022/09/30 00:38:10;;;;;;;7.75;4.55;;;3.80;99.90;;;;;;5068275;28;20111;-47
2022/09/30 00:40:39;;;;;;;6.55;4.80;;;3.80;99.90;;;;;;5048285;28;20086;-50
2022/09/30 00:43:13;;;;;;;9.00;4.38;;;3.80;99.90;;;;;;5068800;28;20052;-49
2022/09/30 00:46:02;;;;;;;8.77;5.13;;;3.70;99.90;;;;;;5045149;28;20515;-46
2022/09/30 00:48:36;;;;;;;6.72;4.32;;;3.70;99.90;;;;;;5029436;28;20045;-54
2022/09/30 00:51:03;;;;;;;7.65;4.93;;;3.60;99.90;;;;;;5029387;28;20386;-52
2022/09/30 00:53:40;;;;;;;8.20;4.55;;;3.60;99.90;;;;;;5068105;28;20028;-48
2022/09/30 00:56:20;;;;;;;8.80;4.90;;;3.60;99.90;;;;;;5069145;28;20036;-49
2022/09/30 00:59:08;;;;;;;7.53;5.20;;;3.50;99.90;;;;;;5029873;28;20026;-48
2022/09/30 01:01:37;;;;;;;6.32;4.43;;;3.50;99.90;;;;;;5048959;28;20124;-52
2022/09/30 01:04:06;;;;;;;8.43;4.85;;;3.50;99.90;;;;;;5066741;28;20028;-49
2022/09/30 01:06:31;;;;;;;10.27;4.88;;;3.50;99.90;;;;;;5069204;28;20051;-54
2022/09/30 01:08:59;;;;;;;8.48;4.45;;;3.50;99.90;;;;;;5049944;28;20052;-53
2022/09/30 01:11:27;;;;;;;9.70;5.18;;;3.40;99.90;;;;;;5069069;28;20028;-52
2022/09/30 01:13:58;;;;;;;6.65;4.60;;;3.40;99.90;;;;;;5049110;28;20033;-51
2022/09/30 01:16:39;;;;;;;7.07;4.03;;;3.40;99.90;;;;;;5068701;28;20033;-52
2022/09/30 01:19:24;;;;;;;5.53;3.47;;;3.40;99.90;;;;;;5034037;28;20487;-52
2022/09/30 01:22:16;;;;;;;7.07;4.53;;;3.40;99.90;;;;;;5068750;28;20071;-50
2022/09/30 01:25:09;;;;;;;6.78;4.50;;;3.30;99.90;;;;;;5036008;28;20025;-49
2022/09/30 01:27:46;;;;;;;10.98;5.45;;;3.30;99.90;;;;;;5029130;28;20044;-51
2022/09/30 01:30:31;;;;;;;7.68;4.63;;;3.30;99.90;;;;;;5039166;28;20052;-48
2022/09/30 01:33:18;;;;;;;7.80;4.55;;;3.20;99.90;;;;;;5028826;28;20100;-51
2022/09/30 01:36:00;;;;;;;7.07;4.53;;;3.20;99.90;;;;;;5043440;28;20029;-52
2022/09/30 01:38:48;;;;;;;7.28;4.78;;;3.20;99.90;;;;;;5028276;28;20642;-50
2022/09/30 01:41:27;;;;;;;6.28;3.70;;;3.20;99.90;;;;;;5028534;28;20045;-48
2022/09/30 01:44:17;;;;;;;7.82;4.90;;;3.20;99.90;;;;;;5028642;28;20029;-52
2022/09/30 01:46:49;;;;;;;8.00;5.15;;;3.20;99.90;;;;;;5068370;28;20078;-48
2022/09/30 01:49:25;;;;;;;9.35;4.57;;;3.20;99.90;;;;;;5034432;28;20016;-52
2022/09/30 01:52:03;;;;;;;7.38;4.40;;;3.10;99.90;;;;;;5068337;28;20017;-49
2022/09/30 01:54:33;;;;;;;10.77;4.85;;;3.10;99.90;;;;;;5038221;28;20564;-50
2022/09/30 01:57:16;;;;;;;14.40;6.07;;;3.10;99.90;;;;;;5068588;28;20078;-49
2022/09/30 02:00:05;;;;;;;6.13;4.05;;;3.10;99.90;;;;;;5041242;28;20555;-53
2022/09/30 02:02:35;;;;;;;7.18;4.72;;;3.00;99.90;;;;;;5028285;28;20321;-46
2022/09/30 02:05:30;;;;;;;8.80;4.53;;;3.00;99.90;;;;;;5046152;28;20484;-48
2022/09/30 02:08:01;;;;;;;7.57;4.53;;;3.00;99.90;;;;;;5058334;28;20041;-52
2022/09/30 02:10:33;;;;;;;8.93;4.35;;;3.00;99.90;;;;;;5039768;28;20056;-51
2022/09/30 02:13:15;;;;;;;5.90;4.07;;;3.00;99.90;;;;;;5032265;28;20030;-48
2022/09/30 02:15:46;;;;;;;9.07;4.80;;;3.00;99.90;;;;;;5045715;28;20032;-48
2022/09/30 02:18:19;;;;;;;7.00;4.47;;;2.90;99.90;;;;;;5032082;28;20186;-48
2022/09/30 02:20:48;;;;;;;5.90;3.88;;;2.90;99.90;;;;;;5041355;28;20425;-49
2022/09/30 02:23:24;;;;;;;8.45;5.13;;;2.90;99.90;;;;;;5056307;28;20025;-49
2022/09/30 02:26:07;;;;;;;7.50;4.95;;;2.80;99.90;;;;;;5046132;28;20032;-51
2022/09/30 02:28:38;;;;;;;7.78;5.20;;;2.90;99.90;;;;;;5032038;28;20048;-47
2022/09/30 02:31:05;;;;;;;7.45;4.95;;;2.90;99.90;;;;;;5048184;28;20025;-46
2022/09/30 02:33:41;;;;;;;8.68;4.53;;;2.80;99.90;;;;;;5071494;28;20487;-50
2022/09/30 02:36:18;;;;;;;7.43;4.68;;;2.80;99.90;;;;;;5048156;28;20037;-48
2022/09/30 02:38:49;;;;;;;6.47;4.55;;;2.80;99.90;;;;;;5031814;28;20084;-48
2022/09/30 02:41:22;;;;;;;7.25;4.07;;;2.80;99.90;;;;;;5049168;28;20124;-51
2022/09/30 02:43:49;;;;;;;7.88;4.70;;;2.70;99.90;;;;;;5031881;28;20485;-49
2022/09/30 02:46:40;;;;;;;6.80;4.18;;;2.70;99.90;;;;;;5050078;28;20029;-49
2022/09/30 02:49:20;;;;;;;6.25;4.32;;;2.70;99.90;;;;;;5069594;28;20039;-47
2022/09/30 02:52:06;;;;;;;9.23;5.47;;;2.70;99.90;;;;;;5071979;28;20032;-47
2022/09/30 02:55:07;;;;;;;9.90;5.75;;;2.70;99.90;;;;;;5038678;28;20400;-46
2022/09/30 02:57:55;;;;;;;8.48;4.88;;;2.70;99.90;;;;;;5051835;28;20039;-49
2022/09/30 03:00:20;;;;;;;10.27;5.38;;;2.70;99.90;;;;;;5051465;28;20039;-47
2022/09/30 03:02:46;;;;;;;9.18;4.53;;;2.60;99.90;;;;;;5051816;28;20033;-51
2022/09/30 03:05:12;;;;;;;9.27;4.80;;;2.60;99.90;;;;;;5068490;28;20039;-49
2022/09/30 03:07:39;;;;;;;9.32;5.80;;;2.60;99.90;;;;;;5051613;28;20029;-46
2022/09/30 03:10:16;;;;;;;9.10;4.88;;;2.60;99.90;;;;;;5068896;28;20020;-49
2022/09/30 03:13:10;;;;;;;6.93;4.55;;;2.60;99.90;;;;;;5031437;28;20029;-46
2022/09/30 03:16:16;;;;;;;8.23;4.53;;;2.60;99.90;;;;;;5055266;28;20043;-48
2022/09/30 03:19:08;;;;;;;12.38;5.15;;;2.60;99.90;;;;;;5031196;28;20026;-48
2022/09/30 03:21:55;;;;;;;9.13;4.80;;;2.60;99.90;;;;;;5029726;28;20397;-52
2022/09/30 03:24:37;;;;;;;7.15;4.43;;;2.50;99.90;;;;;;5060350;28;20068;-47
2022/09/30 03:27:13;;;;;;;12.13;5.60;;;2.50;99.90;;;;;;5070870;28;20028;-46
2022/09/30 03:30:02;;;;;;;9.13;5.22;;;2.50;99.90;;;;;;5038086;28;20024;-47
2022/09/30 03:32:59;;;;;;;9.23;5.88;;;2.50;99.90;;;;;;5071015;28;20032;-48
2022/09/30 03:35:25;;;;;;;8.32;5.25;;;2.50;99.90;;;;;;5050347;28;20117;-49
2022/09/30 03:38:29;;;;;;;9.15;5.75;;;2.50;99.90;;;;;;5060595;28;20068;-53
2022/09/30 03:41:16;;;;;;;10.88;6.22;;;2.40;99.90;;;;;;5041985;28;20041;-51
2022/09/30 03:43:44;;;;;;;10.63;6.00;;;2.50;99.90;;;;;;5030526;28;20033;-48
2022/09/30 03:46:25;;;;;;;11.82;6.65;;;2.40;99.90;;;;;;5051575;28;20048;-53
2022/09/30 03:48:54;;;;;;;11.35;5.82;;;2.40;99.90;;;;;;5030472;28;20048;-50
2022/09/30 03:51:20;;;;;;;13.45;7.07;;;2.40;99.90;;;;;;5050482;28;20525;-51
2022/09/30 03:53:46;;;;;;;13.70;6.40;;;2.40;99.90;;;;;;5069839;28;20120;-47
2022/09/30 03:56:12;;;;;;;10.57;6.03;;;2.40;99.90;;;;;;5048912;28;20116;-48
2022/09/30 03:58:42;;;;;;;10.40;5.97;;;2.40;99.90;;;;;;5069683;28;20028;-47
2022/09/30 04:01:17;;;;;;;9.07;5.78;;;2.30;99.90;;;;;;5044505;28;20174;-50
2022/09/30 04:03:43;;;;;;;8.75;5.05;;;2.30;99.90;;;;;;5030544;28;20037;-48
2022/09/30 04:06:12;;;;;;;12.48;6.18;;;2.40;99.90;;;;;;5050613;28;20107;-46
2022/09/30 04:08:38;;;;;;;10.38;5.50;;;2.30;99.90;;;;;;5070037;28;20417;-52
2022/09/30 04:11:04;;;;;;;12.63;6.63;;;2.30;99.90;;;;;;5049155;28;20048;-49
2022/09/30 04:13:30;;;;;;;12.00;6.10;;;2.30;99.90;;;;;;5069595;28;20087;-49
2022/09/30 04:15:55;;;;;;;9.02;5.65;;;2.30;99.90;;;;;;5048865;28;20574;-49
2022/09/30 04:18:21;;;;;;;8.70;5.40;;;2.20;99.90;;;;;;5069501;28;20417;-52
2022/09/30 04:20:46;;;;;;;8.10;5.05;;;2.20;99.90;;;;;;5048930;28;20049;-48
2022/09/30 04:23:12;;;;;;;8.90;5.25;;;2.20;99.90;;;;;;5058488;28;20401;-54
2022/09/30 04:25:37;;;;;;;14.05;7.55;;;2.20;99.90;;;;;;5056259;28;20378;-47
2022/09/30 04:28:03;;;;;;;18.85;8.18;;;2.20;99.90;;;;;;5069334;28;20044;-46
2022/09/30 04:30:28;;;;;;;19.35;10.25;;;2.20;99.90;;;;;;5058046;28;20483;-48
2022/09/30 04:32:54;;;;;;;22.38;12.50;;;2.20;99.90;;;;;;5050522;28;20542;-49
2022/09/30 04:35:19;;;;;;;22.77;11.73;;;2.20;99.90;;;;;;5067049;28;20034;-50
2022/09/30 04:37:46;;;;;;;18.48;9.55;;;2.20;99.90;;;;;;5059108;28;20064;-51
2022/09/30 04:40:13;;;;;;;13.13;8.57;;;2.20;99.90;;;;;;5055258;28;20037;-47
2022/09/30 04:42:41;;;;;;;12.50;7.45;;;2.20;99.90;;;;;;5069632;28;20028;-50
2022/09/30 04:45:09;;;;;;;13.82;7.78;;;2.20;99.90;;;;;;5054160;28;20041;-47
2022/09/30 04:47:34;;;;;;;14.68;8.50;;;2.20;99.90;;;;;;5069806;28;20036;-49
2022/09/30 04:49:59;;;;;;;12.88;6.80;;;2.20;99.90;;;;;;5053327;28;20036;-51
2022/09/30 04:52:25;;;;;;;13.80;7.75;;;2.20;99.90;;;;;;5069762;28;20484;-48
2022/09/30 04:54:51;;;;;;;18.50;9.48;;;2.20;99.90;;;;;;5051787;28;20037;-49
2022/09/30 04:57:16;;;;;;;16.05;9.63;;;2.20;99.90;;;;;;5069659;28;20089;-48
2022/09/30 04:59:42;;;;;;;21.95;12.70;;;2.20;99.90;;;;;;5050402;28;20102;-50
2022/09/30 05:02:09;;;;;;;19.90;11.75;;;2.20;99.90;;;;;;5069273;28;20032;-52
2022/09/30 05:04:34;;;;;;;18.20;9.52;;;2.20;99.90;;;;;;5049268;28;20156;-49
2022/09/30 05:07:00;;;;;;;26.65;12.77;;;2.20;99.90;;;;;;5069101;28;20096;-51
2022/09/30 05:09:26;;;;;;;25.33;13.10;;;2.20;99.90;;;;;;5048935;28;20378;-50
2022/09/30 05:11:52;;;;;;;15.80;8.80;;;2.20;99.90;;;;;;5029201;28;20112;-50
2022/09/30 05:14:17;;;;;;;19.17;10.68;;;2.20;99.90;;;;;;5067800;28;20063;-51
2022/09/30 05:16:43;;;;;;;15.82;9.10;;;2.20;99.90;;;;;;5047739;28;20112;-53
2022/09/30 05:19:08;;;;;;;16.30;9.40;;;2.30;99.90;;;;;;5068127;28;20535;-48
2022/09/30 05:21:34;;;;;;;17.13;8.93;;;2.30;99.90;;;;;;5047974;28;20613;-52
2022/09/30 05:24:00;;;;;;;15.95;8.30;;;2.30;99.90;;;;;;5065318;28;20024;-47
2022/09/30 05:26:25;;;;;;;18.88;9.98;;;2.30;99.90;;;;;;5047848;28;20458;-47
2022/09/30 05:28:51;;;;;;;14.70;9.10;;;2.30;99.90;;;;;;5067831;28;20038;-51
2022/09/30 05:31:17;;;;;;;18.45;8.98;;;2.40;99.90;;;;;;5044289;28;20036;-54
2022/09/30 05:33:44;;;;;;;14.35;8.57;;;2.40;99.90;;;;;;5067087;28;20054;-52
2022/09/30 05:36:13;;;;;;;16.63;8.77;;;2.40;99.90;;;;;;5047361;28;20040;-49
2022/09/30 05:38:39;;;;;;;15.95;8.23;;;2.50;99.90;;;;;;5068682;28;20432;-51
2022/09/30 05:41:13;;;;;;;17.25;8.43;;;2.50;99.90;;;;;;5047623;28;20037;-49
2022/09/30 05:43:39;;;;;;;21.92;10.10;;;2.60;99.90;;;;;;5028916;28;20033;-50
2022/09/30 05:46:05;;;;;;;34.40;14.88;;;2.60;99.90;;;;;;5052637;28;20029;-49
2022/09/30 05:48:31;;;;;;;28.27;13.40;;;2.80;99.90;;;;;;5068177;28;20040;-53
2022/09/30 05:50:58;;;;;;;22.90;11.93;;;2.90;99.90;;;;;;5047231;28;20512;-48
2022/09/30 05:53:24;;;;;;;23.13;12.27;;;3.30;99.90;;;;;;5068272;28;20068;-52
2022/09/30 05:55:50;;;;;;;23.10;10.38;;;4.00;99.90;;;;;;5056148;28;20459;-51
2022/09/30 05:58:16;;;;;;;12.07;8.00;;;4.90;99.90;;;;;;5048893;28;20136;-49
2022/09/30 06:00:43;;;;;;;12.48;7.20;;;5.70;99.90;;;;;;5064945;28;20082;-47
2022/09/30 06:03:09;;;;;;;13.95;7.13;;;6.50;99.90;;;;;;5048693;28;20037;-46
2022/09/30 06:05:35;;;;;;;13.85;8.23;;;7.20;99.90;;;;;;5065999;28;20073;-51
2022/09/30 06:08:01;;;;;;;13.82;7.75;;;7.80;99.90;;;;;;5047774;28;20040;-49
2022/09/30 06:10:27;;;;;;;10.63;6.60;;;8.60;99.90;;;;;;5058997;28;20017;-49
2022/09/30 06:12:52;;;;;;;10.55;6.38;;;9.20;99.90;;;;;;5048664;28;20029;-48
2022/09/30 06:15:18;;;;;;;9.80;6.65;;;9.80;99.90;;;;;;5060245;28;20036;-48
2022/09/30 06:17:43;;;;;;;15.30;7.70;;;10.30;98.20;;;;;;5047341;28;20436;-48
2022/09/30 06:20:09;;;;;;;7.65;5.90;;;10.80;95.90;;;;;;5065718;28;20029;-55
2022/09/30 06:22:35;;;;;;;9.25;6.40;;;11.30;95.70;;;;;;5060104;28;20485;-53
2022/09/30 06:25:05;;;;;;;7.35;5.90;;;11.70;92.80;;;;;;5046574;28;20021;-53
2022/09/30 06:27:32;;;;;;;11.15;6.22;;;12.00;92.40;;;;;;5048351;28;20029;-53
2022/09/30 06:29:58;;;;;;;7.18;5.85;;;12.10;92.50;;;;;;5063466;28;20032;-55
2022/09/30 06:32:25;;;;;;;7.68;5.35;;;12.30;92.30;;;;;;5048464;28;20051;-51
2022/09/30 06:34:54;;;;;;;8.57;5.78;;;12.70;91.80;;;;;;5065553;28;20104;-53
2022/09/30 06:37:23;;;;;;;9.02;4.60;;;13.30;91.10;;;;;;5062445;28;20209;-54
2022/09/30 06:39:49;;;;;;;9.60;5.70;;;13.80;89.00;;;;;;5047063;28;20035;-53
2022/09/30 06:42:16;;;;;;;8.15;5.38;;;14.30;85.80;;;;;;5067983;28;20035;-53
2022/09/30 06:44:42;;;;;;;8.45;5.28;;;14.80;83.90;;;;;;5046656;28;20028;-50
2022/09/30 06:47:08;;;;;;;7.72;5.30;;;15.20;84.80;;;;;;5054446;28;20028;-54
2022/09/30 06:49:33;;;;;;;7.28;5.22;;;15.60;78.40;;;;;;5067272;28;20867;-55
2022/09/30 06:52:00;;;;;;;7.03;5.07;;;15.90;77.50;;;;;;5046720;28;20036;-54
2022/09/30 06:54:27;;;;;;;8.60;5.55;;;16.30;79.30;;;;;;5067433;28;20027;-53
2022/09/30 06:56:56;;;;;;;9.00;5.95;;;16.50;77.60;;;;;;5046532;28;20064;-53
2022/09/30 06:59:24;;;;;;;9.48;6.18;;;16.60;74.90;;;;;;5070657;28;20040;-54
2022/09/30 07:01:50;;;;;;;6.90;5.00;;;16.50;73.00;;;;;;5049927;28;20029;-56
2022/09/30 07:04:15;;;;;;;8.02;4.97;;;16.50;76.90;;;;;;5070570;28;20085;-54
2022/09/30 07:06:41;;;;;;;5.45;4.43;;;16.70;78.30;;;;;;5050274;28;20047;-55
2022/09/30 07:09:08;;;;;;;5.95;5.15;;;16.90;77.40;;;;;;5070767;28;20028;-52
2022/09/30 07:11:35;;;;;;;5.80;5.07;;;16.70;69.90;;;;;;5050103;28;20032;-54
2022/09/30 07:14:00;;;;;;;7.50;4.65;;;16.60;74.50;;;;;;5070829;28;20025;-56
2022/09/30 07:16:26;;;;;;;6.95;5.30;;;16.70;79.40;;;;;;5049780;28;20087;-56
2022/09/30 07:18:51;;;;;;;8.20;6.10;;;16.90;77.70;;;;;;5070577;28;20107;-56
2022/09/30 07:21:17;;;;;;;8.60;5.05;;;16.90;73.10;;;;;;5049861;28;20029;-50
2022/09/30 07:23:47;;;;;;;7.45;5.22;;;16.90;73.80;;;;;;5063094;28;20028;-51
2022/09/30 07:26:15;;;;;;;7.13;5.65;;;17.00;77.80;;;;;;5051254;28;20051;-55
2022/09/30 07:28:42;;;;;;;7.65;5.60;;;17.00;76.00;;;;;;5051045;28;20031;-56
2022/09/30 07:31:11;;;;;;;6.90;5.75;;;17.00;76.30;;;;;;5068730;28;20048;-54
2022/09/30 07:33:38;;;;;;;5.53;4.78;;;16.90;67.70;;;;;;5051274;28;20124;-53
2022/09/30 07:36:07;;;;;;;8.13;5.28;;;16.80;70.50;;;;;;5068224;28;20025;-54
2022/09/30 07:38:35;;;;;;;5.30;4.53;;;16.80;71.90;;;;;;5050764;28;20049;-56
2022/09/30 07:41:03;;;;;;;7.72;5.55;;;16.70;74.40;;;;;;5068459;28;20496;-54
2022/09/30 07:43:39;;;;;;;6.38;5.03;;;16.60;74.70;;;;;;5050935;28;20512;-56
2022/09/30 07:46:14;;;;;;;7.28;4.45;;;16.80;79.00;;;;;;5047884;28;20454;-56
2022/09/30 07:48:49;;;;;;;5.22;4.43;;;17.20;62.90;;;;;;5051056;28;20111;-52
2022/09/30 07:51:30;;;;;;;6.10;4.33;;;17.20;73.30;;;;;;5049961;28;20450;-53
2022/09/30 07:54:01;;;;;;;5.28;4.32;;;17.30;72.00;;;;;;5030479;28;20864;-56
2022/09/30 07:56:28;;;;;;;7.68;5.07;;;17.40;61.70;;;;;;5056067;28;20536;-52
2022/09/30 07:58:59;;;;;;;5.43;4.70;;;17.50;72.50;;;;;;5056345;28;20449;-56
2022/09/30 08:01:25;;;;;;;6.50;4.85;;;17.80;67.20;;;;;;5043620;28;20431;-56
2022/09/30 08:03:53;;;;;;;6.63;4.85;;;17.90;67.90;;;;;;5054033;28;20112;-55
2022/09/30 08:06:20;;;;;;;4.88;4.07;;;18.10;66.10;;;;;;5066612;28;20035;-55
2022/09/30 08:08:46;;;;;;;11.43;6.82;;;18.30;67.10;;;;;;5049580;28;20024;-55
2022/09/30 08:11:13;;;;;;;5.70;4.85;;;18.30;58.70;;;;;;5057296;28;20029;-55
2022/09/30 08:13:39;;;;;;;7.75;5.43;;;18.30;61.10;;;;;;5048579;28;20048;-56
2022/09/30 08:16:05;;;;;;;7.15;5.28;;;18.40;60.20;;;;;;5055507;28;20036;-53
2022/09/30 08:18:31;;;;;;;5.97;4.80;;;18.40;58.40;;;;;;5049123;28;20025;-51
2022/09/30 08:21:02;;;;;;;5.95;5.07;;;18.20;58.00;;;;;;5066474;28;20036;-54
2022/09/30 08:23:28;;;;;;;5.63;5.00;;;18.00;55.30;;;;;;5051370;28;20052;-54
2022/09/30 08:26:09;;;;;;;7.50;4.90;;;18.00;57.30;;;;;;5066844;28;20232;-52
2022/09/30 08:28:36;;;;;;;7.32;4.93;;;18.10;57.10;;;;;;5045081;28;20025;-54
2022/09/30 08:31:12;;;;;;;8.50;5.50;;;18.20;56.70;;;;;;5040580;28;20124;-53
2022/09/30 08:33:38;;;;;;;6.03;4.88;;;18.10;47.80;;;;;;5039002;28;20029;-53
2022/09/30 08:36:06;;;;;;;6.03;5.38;;;18.20;53.10;;;;;;5054332;28;20044;-55
2022/09/30 08:38:33;;;;;;;5.75;5.13;;;18.20;53.30;;;;;;5044172;28;20041;-54
2022/09/30 08:41:27;;;;;;;9.13;5.47;;;18.20;53.40;;;;;;5066203;28;20128;-54
2022/09/30 08:44:08;;;;;;;5.90;4.90;;;18.30;50.60;;;;;;5069856;28;20024;-55
2022/09/30 08:46:51;;;;;;;6.40;5.43;;;18.40;52.00;;;;;;5039369;28;20041;-55
2022/09/30 08:49:54;;;;;;;6.95;4.40;;;18.60;47.60;;;;;;5029519;28;20033;-53
2022/09/30 08:52:25;;;;;;;7.07;4.53;;;18.50;47.70;;;;;;5048568;28;20029;-56
2022/09/30 08:54:53;;;;;;;5.85;4.53;;;18.60;52.30;;;;;;5029295;28;20041;-54
2022/09/30 08:57:20;;;;;;;6.22;4.85;;;18.60;51.60;;;;;;5049355;28;20481;-56
2022/09/30 08:59:50;;;;;;;5.38;4.53;;;18.80;48.90;;;;;;5068950;28;20028;-52
2022/09/30 09:02:39;;;;;;;6.05;4.55;;;18.90;50.00;;;;;;5047716;28;20103;-54
2022/09/30 09:05:07;;;;;;;6.43;4.20;;;19.20;46.30;;;;;;5048846;28;20037;-54
2022/09/30 09:07:50;;;;;;;6.80;4.35;;;19.20;49.00;;;;;;5047159;28;20029;-53
2022/09/30 09:10:40;;;;;;;7.32;4.70;;;19.30;47.60;;;;;;5027790;28;20037;-55
2022/09/30 09:13:24;;;;;;;6.30;4.68;;;19.00;43.90;;;;;;5069205;28;20024;-53
2022/09/30 09:16:11;;;;;;;5.38;3.55;;;19.10;46.30;;;;;;5036563;28;20107;-55
2022/09/30 09:18:54;;;;;;;6.55;3.88;;;19.30;45.80;;;;;;5068849;28;20028;-52
2022/09/30 09:21:33;;;;;;;7.45;5.22;;;19.40;41.20;;;;;;5043857;28;20089;-55
2022/09/30 09:24:01;;;;;;;3.78;3.03;;;19.40;40.70;;;;;;5021586;28;20037;-53
2022/09/30 09:26:33;;;;;;;4.30;3.00;;;19.50;42.20;;;;;;5066510;28;20111;-51
2022/09/30 09:29:17;;;;;;;7.72;3.97;;;19.60;42.40;;;;;;5028989;28;20103;-53
2022/09/30 09:31:43;;;;;;;3.92;2.90;;;19.70;38.20;;;;;;5050004;28;20025;-52
2022/09/30 09:34:11;;;;;;;4.20;3.70;;;19.80;40.70;;;;;;5049437;28;20521;-54
2022/09/30 09:36:50;;;;;;;4.18;3.38;;;19.80;39.50;;;;;;5066345;28;20437;-50
2022/09/30 09:39:24;;;;;;;5.68;4.22;;;19.70;37.60;;;;;;5028920;28;20030;-52
2022/09/30 09:41:57;;;;;;;5.53;3.60;;;19.30;34.60;;;;;;5039081;28;20493;-53
2022/09/30 09:44:50;;;;;;;3.85;3.40;;;19.00;38.30;;;;;;5068899;28;20096;-55
2022/09/30 09:47:16;;;;;;;3.58;2.60;;;19.10;36.00;;;;;;5042833;28;20131;-50
2022/09/30 09:49:44;;;;;;;4.10;2.80;;;19.10;37.30;;;;;;5068104;28;20111;-54
2022/09/30 09:52:11;;;;;;;3.17;2.80;;;19.00;37.20;;;;;;5047210;28;20078;-51
2022/09/30 09:54:41;;;;;;;4.10;2.30;;;19.00;37.80;;;;;;5067787;28;20032;-49
2022/09/30 09:57:16;;;;;;;4.05;2.80;;;19.00;37.60;;;;;;5046508;28;20041;-50
2022/09/30 09:59:58;;;;;;;5.33;2.77;;;19.00;35.50;;;;;;5028767;28;20029;-53
2022/09/30 10:02:27;;;;;;;5.57;2.50;;;19.00;33.70;;;;;;5050573;28;20150;-52
2022/09/30 10:05:03;;;;;;;3.80;2.00;;;19.00;35.30;;;;;;5068290;28;20044;-52
2022/09/30 10:07:31;;;;;;;5.20;2.85;;;18.80;34.20;;;;;;5043834;28;20029;-51
2022/09/30 10:10:18;;;;;;;2.90;1.90;;;18.70;32.70;;;;;;5068255;28;20067;-53
2022/09/30 10:12:47;;;;;;;2.25;2.00;;;18.60;31.10;;;;;;5050872;28;20493;-52
2022/09/30 10:15:25;;;;;;;2.67;1.80;;;18.60;33.30;;;;;;5068446;28;20032;-50
2022/09/30 10:17:53;;;;;;;3.30;2.03;;;18.50;30.70;;;;;;5046564;28;20037;-50
2022/09/30 10:20:28;;;;;;;2.65;2.00;;;18.40;32.10;;;;;;5067932;28;20420;-54
2022/09/30 10:23:16;;;;;;;2.30;1.90;;;18.20;30.40;;;;;;5047993;28;20025;-53
2022/09/30 10:26:12;;;;;;;2.97;1.65;;;18.10;31.80;;;;;;5066335;28;20028;-50
2022/09/30 10:28:58;;;;;;;2.27;1.70;;;18.00;33.00;;;;;;5068238;28;20067;-52
2022/09/30 10:31:28;;;;;;;3.15;1.70;;;17.90;33.50;;;;;;5041116;28;20048;-52
2022/09/30 10:34:10;;;;;;;3.92;2.15;;;17.90;33.60;;;;;;5052445;28;20025;-53
2022/09/30 10:36:39;;;;;;;2.38;2.17;;;17.90;34.60;;;;;;5047487;28;20037;-52
2022/09/30 10:39:06;;;;;;;2.15;1.83;;;17.70;33.90;;;;;;5032066;28;20784;-50
2022/09/30 10:41:37;;;;;;;4.68;2.25;;;17.50;34.30;;;;;;5066559;28;20041;-50
2022/09/30 10:44:06;;;;;;;2.38;1.77;;;17.40;33.30;;;;;;5043813;28;20063;-49
2022/09/30 10:46:38;;;;;;;2.13;1.52;;;17.40;34.10;;;;;;5055410;28;20057;-50
2022/09/30 10:49:10;;;;;;;1.65;1.55;;;17.30;34.00;;;;;;5031908;28;20037;-54
2022/09/30 10:51:37;;;;;;;2.35;1.65;;;17.30;32.80;;;;;;5067205;28;20051;-55
2022/09/30 10:54:04;;;;;;;4.30;2.38;;;17.30;32.60;;;;;;5049485;28;20025;-52
2022/09/30 10:56:39;;;;;;;3.72;2.50;;;17.20;33.70;;;;;;5066831;28;20036;-53
2022/09/30 10:59:20;;;;;;;2.53;1.90;;;17.10;33.80;;;;;;5067353;28;20409;-58
2022/09/30 11:02:08;;;;;;;2.25;1.95;;;16.90;34.00;;;;;;5065424;28;20133;-54
2022/09/30 11:04:38;;;;;;;1.90;1.73;;;16.90;34.70;;;;;;5034511;28;20060;-52
2022/09/30 11:07:16;;;;;;;3.33;1.90;;;16.80;35.20;;;;;;5043347;28;20041;-51
2022/09/30 11:09:59;;;;;;;2.95;1.73;;;16.80;35.20;;;;;;5040698;28;20074;-56
2022/09/30 11:12:39;;;;;;;2.00;1.77;;;16.80;35.50;;;;;;5031900;28;20045;-54
2022/09/30 11:15:26;;;;;;;4.57;1.92;;;16.90;35.70;;;;;;5031931;28;20090;-50
2022/09/30 11:18:00;;;;;;;1.98;1.60;;;17.00;35.80;;;;;;5048440;28;20044;-55
2022/09/30 11:20:43;;;;;;;3.22;1.60;;;17.00;35.60;;;;;;5032636;28;20025;-51
2022/09/30 11:23:19;;;;;;;7.03;1.83;;;17.00;35.30;;;;;;5038680;28;20466;-50
2022/09/30 11:26:38;;;;;;;2.22;2.03;;;17.00;35.40;;;;;;5029143;28;20037;-54
2022/09/30 11:29:26;;;;;;;2.17;1.50;;;17.10;34.90;;;;;;5030754;28;20569;-54
2022/09/30 11:32:07;;;;;;;2.08;1.13;;;17.10;35.50;;;;;;5046395;28;20048;-54
2022/09/30 11:34:59;;;;;;;3.80;1.50;;;17.10;35.40;;;;;;5031016;28;20087;-55
2022/09/30 11:38:03;;;;;;;3.58;1.80;;;17.30;34.80;;;;;;5048733;28;20071;-52
2022/09/30 11:40:36;;;;;;;7.30;2.35;;;17.30;32.50;;;;;;5031069;28;20053;-51
2022/09/30 11:43:18;;;;;;;2.60;1.50;;;17.30;33.60;;;;;;5050083;28;20025;-50
2022/09/30 11:46:20;;;;;;;3.38;1.67;;;17.30;32.70;;;;;;5030921;28;20036;-53
2022/09/30 11:49:40;;;;;;;2.83;1.50;;;17.30;32.80;;;;;;5030934;28;20030;-50
2022/09/30 11:52:37;;;;;;;2.63;1.70;;;17.30;33.60;;;;;;5049269;28;20074;-48
2022/09/30 11:55:16;;;;;;;3.58;1.30;;;17.30;33.10;;;;;;5030782;28;20029;-53
2022/09/30 11:57:51;;;;;;;3.22;1.67;;;17.20;33.50;;;;;;5044492;28;20061;-55
2022/09/30 12:00:18;;;;;;;3.58;1.42;;;17.30;34.10;;;;;;5030896;28;20562;-51
2022/09/30 12:02:46;;;;;;;3.38;1.30;;;17.30;32.40;;;;;;5052037;28;20057;-52
2022/09/30 12:05:38;;;;;;;1.98;1.45;;;17.30;32.70;;;;;;5069759;28;20155;-53
2022/09/30 12:08:18;;;;;;;3.05;1.65;;;17.30;32.70;;;;;;5046569;28;20045;-52
2022/09/30 12:10:51;;;;;;;2.00;1.45;;;17.30;33.00;;;;;;5030641;28;20025;-53
2022/09/30 12:13:31;;;;;;;3.75;1.88;;;17.30;33.50;;;;;;5049588;28;20384;-50
2022/09/30 12:15:58;;;;;;;3.53;1.60;;;17.20;33.10;;;;;;5029222;28;20032;-52
2022/09/30 12:18:32;;;;;;;3.35;1.10;;;17.20;33.60;;;;;;5070446;28;20047;-53
2022/09/30 12:21:11;;;;;;;2.17;1.83;;;17.20;34.00;;;;;;5029544;28;20041;-52
2022/09/30 12:23:48;;;;;;;3.42;1.77;;;17.20;33.10;;;;;;5054739;28;20053;-53
2022/09/30 12:26:14;;;;;;;3.70;1.83;;;17.20;32.00;;;;;;5033199;28;20057;-51
2022/09/30 12:31:47;;;;;;;2.10;1.40;;;17.20;33.00;;;;;;5036965;28;20060;-51
2022/09/30 12:34:47;;;;;;;2.05;1.40;;;17.10;33.20;;;;;;5070015;28;20020;-50
2022/09/30 12:37:21;;;;;;;3.28;1.52;;;17.20;33.40;;;;;;5048263;28;20611;-58
2022/09/30 12:40:13;;;;;;;2.72;1.65;;;17.10;32.40;;;;;;5029853;28;20033;-51
2022/09/30 12:43:00;;;;;;;3.30;1.33;;;17.10;33.50;;;;;;5055217;28;20017;-50
2022/09/30 12:45:50;;;;;;;2.63;1.30;;;17.20;33.30;;;;;;5050062;28;20493;-53
2022/09/30 12:48:19;;;;;;;2.20;1.17;;;17.20;34.20;;;;;;5046687;28;20064;-49
2022/09/30 12:50:51;;;;;;;3.53;1.23;;;17.40;33.60;;;;;;5056270;28;20033;-53
2022/09/30 12:53:26;;;;;;;2.78;1.52;;;17.50;33.00;;;;;;5044369;28;20033;-53
2022/09/30 12:55:53;;;;;;;1.52;1.00;;;17.50;32.40;;;;;;5026308;28;20037;-53
2022/09/30 12:58:20;;;;;;;3.15;1.13;;;17.60;32.40;;;;;;5045592;28;20079;-52
2022/09/30 13:01:20;;;;;;;1.20;1.17;;;17.50;31.80;;;;;;5066262;28;20544;-51
2022/09/30 13:04:07;;;;;;;2.65;1.30;;;17.60;30.70;;;;;;5066871;28;20043;-49
2022/09/30 13:06:45;;;;;;;1.83;1.33;;;17.70;31.10;;;;;;5042363;28;20071;-48
2022/09/30 13:09:10;;;;;;;3.60;1.55;;;17.90;29.90;;;;;;5044138;28;20025;-47
2022/09/30 13:11:38;;;;;;;3.17;1.83;;;17.90;27.50;;;;;;5046870;28;20053;-52
2022/09/30 13:14:28;;;;;;;2.28;1.15;;;17.90;29.60;;;;;;5039447;28;20201;-52
2022/09/30 13:17:05;;;;;;;1.88;1.33;;;17.80;29.80;;;;;;5044832;28;20033;-52
2022/09/30 13:19:35;;;;;;;3.50;1.40;;;17.90;30.30;;;;;;5046437;28;20037;-52
2022/09/30 13:22:31;;;;;;;2.13;1.30;;;17.80;29.60;;;;;;5060077;28;20038;-52
2022/09/30 13:24:56;;;;;;;1.45;1.17;;;17.70;30.00;;;;;;5039653;28;20033;-53